Ogden, UT (84401)

1:53 PM MST on December 22, 2014 (GMT -0700)
Harrisville 1411 | Change Station
CLOSE
Current Station
Personal Weather Station
Location: Ogden, UT
Elevation: 4310 ft
Nearby Weather Stations

Elev 4310 ft 41.26 °N, 111.98 °W | Updated 2 minutes ago

Overcast
Overcast
43.1 °F
Feels Like 37 °F
N
11.0
Wind Variable Wind from NW
Gusts 11.0 mph

Today
High -- | Low -- °F
--% Chance of Precip.
Yesterday
High -- | Low -- °F
Precip. -- in
7:50 AM 5:02 PM
New Moon, 1% visible
Pressure 29.95 in
Visibility 10.0 miles
Clouds Few 2600 ft
Mostly Cloudy 3800 ft
Overcast 4900 ft
Windchill 37 °F
Dew Point 35 °F
Humidity 72%
Rainfall 0.07 in
Snow Depth Not available.
UV 1 out of 12
Pollen .10 out of 12
Air Quality Not available.
Flu Activity Not available.
METAR KOGD 221953Z AUTO 33017G23KT 10SM FEW026 BKN038 OVC049 06/01 A2998 RMK AO2 SLP142 T00610011 TSNO

More Conditions Fewer Conditions

Pressure 29.95 in
Visibility 10.0 miles
Clouds Few 2600 ft
Mostly Cloudy 3800 ft
Overcast 4900 ft
Windchill 37 °F
Dew Point 35 °F
Humidity 72%
Rainfall 0.07 in
Snow Depth Not available.
UV 1 out of 12
Pollen .10 out of 12
Air Quality Not available.
Flu Activity Not available.
METAR KOGD 221953Z AUTO 33017G23KT 10SM FEW026 BKN038 OVC049 06/01 A2998 RMK AO2 SLP142 T00610011 TSNO

More Conditions Fewer Conditions

10-Day Weather Forecast

Almanac

Astronomy

Dec. 22, 2014 Rise Set
Actual Time
Civil Twilight
Nautical Twilight
Astronomical Twilight
Moon
Length of Visible Light
Length of Day
Tomorrow will be .
, % of the Moon is Illuminated

Today's Extremes

State Highs State Lows

Community

WunderPhotos

Upload Photos

1,779,676 photos uploaded!

WunderBlogs® & News

Nearby

Air Quality

  Air Quality AQ Index Pollutant
Not available.

Snow Depth

Station Depth Elevation

Earthquake Activity

City Distance Mag. Time & Date
Minimum magnitude displayed is 2.5.

Coastal Water Temperatures

Place Temperature

Nearby Weather Stations